Time;durP1;ratioP1;P1;durP2;ratioP2;P2;SDS_P1;SDS_P2;PMS_P1;PMS_P2;Temp;Humidity;BMP_temperature;BMP_pressure;BME280_temperature;BME280_humidity;BME280_pressure;Samples;Min_cycle;Max_cycle;Signal;HPM_P1;HPM_P2
2023/12/13 05:31:29;;;;;;;199.60;34.63;;;;;;;;;;5271143;23;20142;-92
2023/12/13 05:34:05;;;;;;;196.00;32.78;;;;;;;;;;4882432;29;20124;-91
2023/12/13 05:39:54;;;;;;;124.93;30.48;;;;;;;;;;4900463;29;20133;-94
2023/12/13 05:42:22;;;;;;;99.30;26.75;;;;;;;;;;4899156;29;20032;-95
2023/12/13 05:45:03;;;;;;;112.68;27.48;;;;;;;;;;4904879;29;20040;-95
2023/12/13 05:47:29;;;;;;;189.88;32.20;;;;;;;;;;4897188;29;20384;-94
2023/12/13 05:49:57;;;;;;;119.68;27.23;;;;;;;;;;4909421;29;20063;-95
2023/12/13 05:52:23;;;;;;;128.35;26.75;;;;;;;;;;4896017;29;20040;-95
2023/12/13 05:54:53;;;;;;;95.03;23.65;;;;;;;;;;4907432;29;20593;-94
2023/12/13 05:57:19;;;;;;;103.25;24.63;;;;;;;;;;4899067;29;20036;-95
2023/12/13 06:00:13;;;;;;;105.03;25.13;;;;;;;;;;4892740;29;20047;-93
2023/12/13 06:02:40;;;;;;;90.35;26.13;;;;;;;;;;4902556;29;20118;-94
2023/12/13 06:05:25;;;;;;;157.00;29.67;;;;;;;;;;4902221;29;20039;-95
2023/12/13 06:07:52;;;;;;;113.22;26.65;;;;;;;;;;4901556;29;20052;-95
2023/12/13 06:10:30;;;;;;;105.45;26.75;;;;;;;;;;4907242;29;20040;-95
2023/12/13 06:12:57;;;;;;;140.82;29.85;;;;;;;;;;4904473;29;20506;-95
2023/12/13 06:15:24;;;;;;;122.82;25.73;;;;;;;;;;4901968;29;20047;-94
2023/12/13 06:17:53;;;;;;;77.90;24.17;;;;;;;;;;4894579;29;20048;-95
2023/12/13 06:20:21;;;;;;;105.75;28.40;;;;;;;;;;4899091;29;20463;-95
2023/12/13 06:22:48;;;;;;;115.15;27.75;;;;;;;;;;4907146;29;20571;-95
2023/12/13 06:25:15;;;;;;;140.50;33.80;;;;;;;;;;4896294;29;20032;-95
2023/12/13 06:28:05;;;;;;;106.47;30.05;;;;;;;;;;4907012;29;20032;-95
2023/12/13 06:30:43;;;;;;;143.73;29.77;;;;;;;;;;4869104;29;20036;-95
2023/12/13 06:33:21;;;;;;;135.18;29.70;;;;;;;;;;4878062;29;20387;-94
2023/12/13 06:36:19;;;;;;;103.72;26.92;;;;;;;;;;4880070;29;20048;-95
2023/12/13 06:43:27;;;;;;;;;;;;;;;;;;;;;
2023/12/13 06:46:43;;;;;;;117.25;27.27;;;;;;;;;;4895974;29;20487;-95
2023/12/13 06:49:09;;;;;;;92.38;25.42;;;;;;;;;;4907353;29;20404;-93
2023/12/13 06:51:42;;;;;;;183.15;32.78;;;;;;;;;;4901572;29;20100;-94
2023/12/13 06:54:51;;;;;;;149.88;27.35;;;;;;;;;;4905313;29;20055;-94
2023/12/13 06:57:33;;;;;;;86.22;24.27;;;;;;;;;;4898122;29;20088;-94
2023/12/13 07:00:09;;;;;;;191.85;32.20;;;;;;;;;;4893330;29;20052;-95
2023/12/13 07:02:36;;;;;;;126.32;27.60;;;;;;;;;;4900087;29;20036;-95
2023/12/13 07:05:10;;;;;;;182.75;39.95;;;;;;;;;;4911086;29;20395;-94
2023/12/13 07:07:42;;;;;;;124.25;34.83;;;;;;;;;;4901991;29;20046;-95
2023/12/13 07:10:09;;;;;;;150.27;36.10;;;;;;;;;;4901147;29;20037;-94
2023/12/13 07:12:40;;;;;;;139.50;33.28;;;;;;;;;;4902862;29;20045;-95
2023/12/13 07:15:10;;;;;;;178.25;34.05;;;;;;;;;;4903012;29;20051;-94
2023/12/13 07:17:38;;;;;;;148.95;33.55;;;;;;;;;;4888827;29;20048;-94
2023/12/13 07:20:07;;;;;;;175.82;33.30;;;;;;;;;;4902881;29;20552;-95
2023/12/13 07:22:35;;;;;;;141.70;29.25;;;;;;;;;;4905275;29;20041;-94
2023/12/13 07:25:06;;;;;;;120.68;27.70;;;;;;;;;;4903505;29;20056;-94
2023/12/13 07:27:33;;;;;;;143.90;27.95;;;;;;;;;;4907363;29;20048;-94
2023/12/13 07:30:01;;;;;;;114.50;27.17;;;;;;;;;;4899927;29;20047;-93
2023/12/13 07:32:28;;;;;;;107.13;26.17;;;;;;;;;;4910184;29;20048;-93
2023/12/13 07:34:57;;;;;;;137.77;29.00;;;;;;;;;;4902946;29;20104;-93
2023/12/13 07:38:07;;;;;;;170.23;30.98;;;;;;;;;;4905783;29;20051;-94
2023/12/13 07:40:50;;;;;;;89.72;25.33;;;;;;;;;;4896570;29;20043;-94
2023/12/13 07:43:19;;;;;;;153.88;30.30;;;;;;;;;;4891457;29;20103;-93
2023/12/13 07:46:46;;;;;;;;;;;;;;;;;;;;;
2023/12/13 07:54:02;;;;;;;194.13;33.42;;;;;;;;;;4831412;29;20077;-93
2023/12/13 07:56:29;;;;;;;303.63;44.65;;;;;;;;;;4792120;29;20050;-93
2023/12/13 08:02:37;;;;;;;210.80;33.35;;;;;;;;;;4820206;29;20134;-93
2023/12/13 08:05:58;;;;;;;;;;;;;;;;;;;;;
2023/12/13 08:09:09;;;;;;;194.98;32.38;;;;;;;;;;4816136;29;20041;-94
2023/12/13 08:11:36;;;;;;;122.07;25.88;;;;;;;;;;4808976;29;20042;-94
2023/12/13 08:14:38;;;;;;;170.20;31.20;;;;;;;;;;4815580;29;20056;-94
2023/12/13 08:17:34;;;;;;;201.98;32.97;;;;;;;;;;4819740;29;20056;-95
2023/12/13 08:20:36;;;;;;;159.32;30.23;;;;;;;;;;4831447;29;20045;-95
2023/12/13 08:23:10;;;;;;;206.48;31.02;;;;;;;;;;4795954;29;20073;-94
2023/12/13 08:28:27;;;;;;;142.82;29.88;;;;;;;;;;4881212;29;20124;-94
2023/12/13 08:31:03;;;;;;;155.60;29.17;;;;;;;;;;4889966;29;20139;-95
2023/12/13 16:15:23;;;;;;;141.35;36.72;;;;;;;;;;4888342;29;20048;-92
2023/12/13 16:18:25;;;;;;;;;;;;;;;;;;;;;
2023/12/13 16:21:31;;;;;;;194.48;38.85;;;;;;;;;;4886008;29;20177;-91
2023/12/13 16:24:13;;;;;;;155.32;36.20;;;;;;;;;;4864538;29;20043;-91
2023/12/13 16:26:43;;;;;;;199.57;39.88;;;;;;;;;;4851203;29;20044;-91
2023/12/13 16:29:09;;;;;;;188.85;38.67;;;;;;;;;;4859640;29;20193;-91
2023/12/13 16:31:50;;;;;;;260.73;44.55;;;;;;;;;;4854597;29;20048;-91
2023/12/13 16:34:17;;;;;;;161.45;39.50;;;;;;;;;;4839150;29;20866;-92
2023/12/13 16:36:46;;;;;;;151.30;36.53;;;;;;;;;;4885588;29;20040;-91
2023/12/13 16:39:21;;;;;;;162.23;40.97;;;;;;;;;;4862696;29;20068;-93
2023/12/13 16:42:19;;;;;;;172.48;38.65;;;;;;;;;;4846475;29;20551;-91
2023/12/13 16:44:46;;;;;;;143.38;36.17;;;;;;;;;;4836395;29;20060;-91
2023/12/13 16:47:13;;;;;;;175.73;41.95;;;;;;;;;;4836428;29;20119;-91
2023/12/13 16:50:12;;;;;;;143.18;36.75;;;;;;;;;;4861745;29;20153;-91
2023/12/13 16:52:40;;;;;;;186.25;40.92;;;;;;;;;;4854203;29;20856;-94
2023/12/13 16:55:21;;;;;;;168.45;38.30;;;;;;;;;;4846319;29;20061;-91
2023/12/13 16:57:52;;;;;;;185.07;40.58;;;;;;;;;;4853929;29;20045;-91
2023/12/13 17:00:22;;;;;;;191.65;39.63;;;;;;;;;;4844744;29;20047;-91
2023/12/13 17:02:52;;;;;;;282.30;45.45;;;;;;;;;;4838652;29;20159;-93
2023/12/13 17:05:23;;;;;;;250.60;44.45;;;;;;;;;;4867199;29;20045;-91
2023/12/13 17:07:49;;;;;;;329.67;49.45;;;;;;;;;;4831429;29;20041;-91
2023/12/13 17:10:17;;;;;;;312.67;51.55;;;;;;;;;;4825755;29;20040;-90
2023/12/13 17:12:52;;;;;;;262.83;44.28;;;;;;;;;;4831028;29;20634;-91
2023/12/13 17:15:25;;;;;;;289.50;58.17;;;;;;;;;;4834256;29;20128;-91
2023/12/13 17:17:53;;;;;;;216.80;47.60;;;;;;;;;;4818353;29;20132;-91
2023/12/13 17:20:20;;;;;;;228.07;50.88;;;;;;;;;;4857820;29;20052;-91
2023/12/13 17:22:55;;;;;;;258.77;45.95;;;;;;;;;;4857620;29;20074;-91
2023/12/13 17:25:55;;;;;;;302.45;46.97;;;;;;;;;;4850077;29;20049;-91
2023/12/13 17:28:22;;;;;;;250.85;43.45;;;;;;;;;;4829104;29;20052;-91
2023/12/13 17:30:49;;;;;;;489.83;62.42;;;;;;;;;;4849958;29;20041;-90
2023/12/13 17:33:16;;;;;;;279.45;48.70;;;;;;;;;;4846250;29;20037;-91
2023/12/13 17:35:43;;;;;;;514.67;69.03;;;;;;;;;;4825337;29;21120;-91
2023/12/13 17:38:10;;;;;;;567.33;72.82;;;;;;;;;;4791466;29;20128;-91
2023/12/13 17:40:36;;;;;;;128.25;36.90;;;;;;;;;;4865792;29;20787;-92
2023/12/13 17:43:13;;;;;;;330.95;50.67;;;;;;;;;;4862048;29;20822;-92
2023/12/13 17:45:40;;;;;;;683.55;83.45;;;;;;;;;;4796088;29;20052;-90
2023/12/13 17:48:06;;;;;;;695.08;89.30;;;;;;;;;;4790355;29;20971;-92
2023/12/13 17:50:33;;;;;;;601.95;78.63;;;;;;;;;;4811420;29;20044;-90
2023/12/13 17:53:01;;;;;;;611.78;79.97;;;;;;;;;;4792935;29;20814;-90
2023/12/13 17:55:28;;;;;;;595.47;76.03;;;;;;;;;;4802197;29;20040;-91
2023/12/13 17:57:55;;;;;;;427.90;59.08;;;;;;;;;;4844100;29;20041;-91
2023/12/13 18:00:24;;;;;;;388.15;58.83;;;;;;;;;;4835443;29;21020;-90
2023/12/13 18:02:51;;;;;;;532.38;72.90;;;;;;;;;;4821947;29;20052;-90
2023/12/13 18:05:17;;;;;;;705.45;92.40;;;;;;;;;;4797660;29;21246;-90
2023/12/13 18:07:44;;;;;;;338.27;56.55;;;;;;;;;;4834074;29;20401;-89
2023/12/13 18:10:11;;;;;;;397.73;61.60;;;;;;;;;;4807699;29;20037;-91
2023/12/13 18:13:04;;;;;;;332.25;53.45;;;;;;;;;;4820505;29;20029;-91
2023/12/13 18:16:08;;;;;;;696.85;90.55;;;;;;;;;;4859627;29;20465;-89
2023/12/13 18:18:35;;;;;;;755.75;94.57;;;;;;;;;;4830363;29;20028;-90
2023/12/13 18:21:03;;;;;;;822.63;105.65;;;;;;;;;;4833227;29;20032;-90
2023/12/13 18:23:30;;;;;;;908.60;111.82;;;;;;;;;;4817116;29;20039;-89
2023/12/13 18:25:59;;;;;;;752.97;93.28;;;;;;;;;;4823638;29;20124;-90
2023/12/13 18:28:26;;;;;;;1014.53;120.80;;;;;;;;;;4817961;29;20040;-89
2023/12/13 18:31:07;;;;;;;959.22;119.40;;;;;;;;;;4822586;29;20043;-88
2023/12/13 18:33:48;;;;;;;963.60;115.32;;;;;;;;;;4818357;29;20037;-89
2023/12/13 18:36:15;;;;;;;800.05;101.07;;;;;;;;;;4839967;29;20035;-90
2023/12/13 18:38:42;;;;;;;802.88;101.72;;;;;;;;;;4785060;29;20100;-89
2023/12/13 18:41:09;;;;;;;823.67;99.10;;;;;;;;;;4834395;29;20028;-90
2023/12/13 18:43:36;;;;;;;752.50;92.78;;;;;;;;;;4829690;29;20043;-90
2023/12/13 18:46:03;;;;;;;653.20;78.85;;;;;;;;;;4844225;29;20501;-89
2023/12/13 18:48:32;;;;;;;765.38;93.93;;;;;;;;;;4848311;29;20463;-89
2023/12/13 18:50:59;;;;;;;662.03;80.25;;;;;;;;;;4860838;29;20319;-89
2023/12/13 18:53:26;;;;;;;740.72;90.95;;;;;;;;;;4847827;29;20165;-90
2023/12/13 18:55:53;;;;;;;856.65;100.40;;;;;;;;;;4825095;29;20041;-90
2023/12/13 18:58:27;;;;;;;692.88;82.47;;;;;;;;;;4825439;29;20033;-89
2023/12/13 19:00:55;;;;;;;492.85;64.72;;;;;;;;;;4867098;29;20048;-90
2023/12/13 19:03:21;;;;;;;437.15;55.78;;;;;;;;;;4864035;29;20055;-90
2023/12/13 19:05:48;;;;;;;291.10;45.53;;;;;;;;;;4829504;29;20052;-90
2023/12/13 19:08:26;;;;;;;438.30;60.25;;;;;;;;;;4834102;29;20488;-91
2023/12/13 19:35:05;;;;;;;;;;;;;;;;;;;;;
2023/12/13 19:38:14;;;;;;;605.53;70.20;;;;;;;;;;4764609;29;20111;-90
2023/12/13 19:41:54;;;;;;;595.22;65.70;;;;;;;;;;4725917;29;20035;-90
2023/12/13 19:46:02;;;;;;;;;;;;;;;;;;;;;
2023/12/13 20:55:23;;;;;;;128.90;32.60;;;;;;;;;;4871712;29;20052;-90
2023/12/13 20:57:49;;;;;;;136.25;33.53;;;;;;;;;;4884424;29;20052;-90
2023/12/13 21:00:17;;;;;;;154.48;33.95;;;;;;;;;;4870695;29;20044;-90
2023/12/13 21:02:43;;;;;;;229.15;36.97;;;;;;;;;;4846487;29;20051;-90
2023/12/13 21:05:10;;;;;;;152.70;32.08;;;;;;;;;;4867931;29;20056;-90
2023/12/13 21:07:37;;;;;;;130.88;28.33;;;;;;;;;;4860132;29;20044;-90
2023/12/13 21:10:05;;;;;;;152.15;32.10;;;;;;;;;;4873908;29;20036;-90
2023/12/13 21:12:31;;;;;;;287.77;42.47;;;;;;;;;;4826137;29;21118;-90
2023/12/13 21:14:58;;;;;;;83.75;25.92;;;;;;;;;;4844674;29;20566;-90
2023/12/13 21:17:25;;;;;;;288.65;39.60;;;;;;;;;;4869010;29;20820;-91
2023/12/13 21:19:52;;;;;;;126.30;30.08;;;;;;;;;;4887022;29;20049;-91
2023/12/13 21:22:18;;;;;;;165.38;30.13;;;;;;;;;;4868657;29;20040;-90
2023/12/13 21:24:45;;;;;;;280.17;40.90;;;;;;;;;;4874104;29;20147;-91
2023/12/13 21:27:12;;;;;;;221.43;38.03;;;;;;;;;;4852400;29;20128;-91
2023/12/13 21:29:38;;;;;;;236.88;36.75;;;;;;;;;;4849343;29;20112;-90
2023/12/13 21:32:05;;;;;;;392.45;48.85;;;;;;;;;;4872142;29;20047;-90
2023/12/13 21:34:32;;;;;;;303.73;40.20;;;;;;;;;;4855888;29;20048;-89
2023/12/13 21:36:58;;;;;;;230.55;35.42;;;;;;;;;;4867565;29;20095;-90
2023/12/13 21:39:26;;;;;;;129.93;27.52;;;;;;;;;;4861820;29;20572;-90
2023/12/13 21:41:52;;;;;;;131.57;27.60;;;;;;;;;;4877255;29;20056;-91
2023/12/13 21:44:19;;;;;;;155.00;29.77;;;;;;;;;;4863469;29;20151;-90
2023/12/13 21:46:46;;;;;;;126.95;25.60;;;;;;;;;;4878063;29;20040;-90
2023/12/13 21:49:13;;;;;;;92.22;24.08;;;;;;;;;;4875713;29;20041;-89
2023/12/13 21:51:39;;;;;;;126.25;26.40;;;;;;;;;;4877992;29;20042;-90
2023/12/13 21:54:06;;;;;;;111.47;26.85;;;;;;;;;;4876442;29;20466;-90
2023/12/13 21:56:33;;;;;;;113.95;26.85;;;;;;;;;;4857397;29;20047;-90
2023/12/13 21:59:00;;;;;;;95.07;25.77;;;;;;;;;;4883152;29;20139;-90
2023/12/13 22:01:26;;;;;;;109.80;24.35;;;;;;;;;;4875962;29;20044;-90
2023/12/13 22:03:54;;;;;;;119.75;27.17;;;;;;;;;;4878590;29;20055;-90
2023/12/13 22:06:20;;;;;;;170.75;31.75;;;;;;;;;;4856803;29;20045;-90
2023/12/13 22:08:47;;;;;;;130.63;26.08;;;;;;;;;;4873000;29;20095;-90
2023/12/13 22:11:14;;;;;;;125.72;27.38;;;;;;;;;;4872942;29;20041;-90
2023/12/13 22:13:41;;;;;;;116.30;26.70;;;;;;;;;;4883043;29;20139;-90
2023/12/13 22:16:14;;;;;;;110.88;26.77;;;;;;;;;;4860652;29;20051;-90
2023/12/13 22:18:45;;;;;;;106.15;27.88;;;;;;;;;;4879513;29;20040;-90
2023/12/13 22:21:12;;;;;;;142.02;27.90;;;;;;;;;;4875891;29;20087;-89
2023/12/13 22:23:38;;;;;;;107.38;25.65;;;;;;;;;;4874069;29;20059;-90
2023/12/13 22:26:16;;;;;;;81.82;24.27;;;;;;;;;;4857845;29;20868;-90
2023/12/13 22:28:43;;;;;;;74.57;26.65;;;;;;;;;;4883364;29;20038;-90
2023/12/13 22:31:10;;;;;;;92.55;26.92;;;;;;;;;;4845596;29;20039;-90
2023/12/13 22:33:37;;;;;;;105.57;27.65;;;;;;;;;;4863193;29;20106;-90
2023/12/13 22:36:04;;;;;;;122.93;26.90;;;;;;;;;;4888115;29;20044;-90
2023/12/13 22:38:31;;;;;;;83.90;25.02;;;;;;;;;;4890305;29;20049;-90
2023/12/13 22:40:57;;;;;;;83.30;28.27;;;;;;;;;;4898556;29;20765;-89
2023/12/13 22:43:24;;;;;;;99.20;27.42;;;;;;;;;;4889665;29;20488;-89
2023/12/13 22:45:51;;;;;;;99.18;28.30;;;;;;;;;;4890020;29;20770;-90
2023/12/13 22:48:17;;;;;;;141.88;31.15;;;;;;;;;;4885273;29;20179;-90
2023/12/13 22:50:44;;;;;;;90.40;26.73;;;;;;;;;;4881123;29;20060;-90
2023/12/13 22:53:12;;;;;;;96.18;25.35;;;;;;;;;;4860204;29;20041;-89
2023/12/13 22:55:39;;;;;;;93.22;24.48;;;;;;;;;;4859121;29;20036;-90
2023/12/13 22:58:06;;;;;;;85.57;25.67;;;;;;;;;;4877435;29;20216;-90
2023/12/13 23:00:33;;;;;;;103.30;26.63;;;;;;;;;;4852569;29;20586;-90
2023/12/13 23:02:59;;;;;;;104.78;28.35;;;;;;;;;;4884864;29;20044;-90
2023/12/13 23:05:26;;;;;;;93.18;25.90;;;;;;;;;;4871133;29;20049;-89
2023/12/13 23:07:53;;;;;;;132.55;28.70;;;;;;;;;;4847015;29;20450;-90
2023/12/13 23:10:19;;;;;;;109.43;24.90;;;;;;;;;;4870496;29;20044;-90
2023/12/13 23:12:46;;;;;;;164.95;30.45;;;;;;;;;;4862094;29;20043;-90
2023/12/13 23:15:13;;;;;;;150.10;28.70;;;;;;;;;;4864522;29;20047;-90
2023/12/13 23:17:39;;;;;;;149.13;28.52;;;;;;;;;;4863489;29;20052;-90
2023/12/13 23:20:07;;;;;;;137.23;28.63;;;;;;;;;;4868943;29;20163;-90
2023/12/13 23:22:34;;;;;;;103.43;26.52;;;;;;;;;;4866641;29;20044;-90
2023/12/13 23:25:01;;;;;;;125.32;26.90;;;;;;;;;;4873039;29;20048;-90
2023/12/13 23:27:28;;;;;;;183.35;30.20;;;;;;;;;;4862305;29;20044;-90
2023/12/13 23:29:56;;;;;;;126.82;26.75;;;;;;;;;;4870667;29;20949;-89
2023/12/13 23:32:22;;;;;;;163.70;29.60;;;;;;;;;;4842113;29;20056;-90
2023/12/13 23:34:50;;;;;;;198.82;32.42;;;;;;;;;;4859708;29;20051;-89
2023/12/13 23:37:16;;;;;;;151.63;29.90;;;;;;;;;;4862125;29;20883;-90
2023/12/13 23:39:43;;;;;;;212.60;32.20;;;;;;;;;;4833447;29;20083;-90
2023/12/13 23:42:10;;;;;;;483.77;54.03;;;;;;;;;;4839894;29;21256;-91
2023/12/13 23:44:36;;;;;;;400.58;46.90;;;;;;;;;;4816589;29;20045;-91
2023/12/13 23:47:03;;;;;;;267.05;36.05;;;;;;;;;;4856242;29;20112;-90
2023/12/13 23:49:29;;;;;;;312.75;39.28;;;;;;;;;;4851540;29;20924;-90
2023/12/13 23:51:56;;;;;;;433.15;47.65;;;;;;;;;;4858515;29;20056;-90
2023/12/13 23:54:23;;;;;;;334.27;40.60;;;;;;;;;;4812219;29;20944;-90
2023/12/13 23:56:49;;;;;;;379.48;44.53;;;;;;;;;;4826879;29;20524;-90
2023/12/13 23:59:16;;;;;;;231.77;32.55;;;;;;;;;;4833090;29;20147;-90
